createdAt,value
2018-09-21T00:00:09.419Z,60.10
2018-09-21T00:02:38.225Z,60.00
2018-09-21T00:05:07.660Z,60.20
2018-09-21T00:07:37.667Z,60.60
2018-09-21T00:10:06.999Z,60.20
2018-09-21T00:12:35.984Z,60.60
2018-09-21T00:15:05.943Z,60.50
2018-09-21T00:17:35.235Z,60.90
2018-09-21T00:20:06.425Z,60.90
2018-09-21T00:22:35.385Z,60.80
2018-09-21T00:25:04.018Z,61.10
2018-09-21T00:27:32.627Z,60.70
2018-09-21T00:30:02.301Z,61.00
2018-09-21T00:32:32.606Z,61.10
2018-09-21T00:35:02.410Z,60.80
2018-09-21T00:37:32.162Z,61.10
2018-09-21T00:40:01.280Z,61.20
2018-09-21T00:42:31.493Z,61.00
2018-09-21T00:45:02.301Z,61.30
2018-09-21T00:47:31.848Z,61.20
2018-09-21T00:50:01.057Z,61.60
2018-09-21T00:52:30.303Z,61.40
2018-09-21T00:54:59.124Z,61.60
2018-09-21T00:57:27.725Z,61.90
2018-09-21T00:59:56.372Z,61.90
2018-09-21T01:02:25.132Z,61.90
2018-09-21T01:04:53.711Z,61.90
2018-09-21T01:07:23.504Z,61.80
2018-09-21T01:09:52.232Z,62.00
2018-09-21T01:12:22.055Z,62.80
2018-09-21T01:14:50.805Z,62.20
2018-09-21T01:17:19.296Z,62.20
2018-09-21T01:19:48.265Z,62.20
2018-09-21T01:22:17.199Z,62.20
2018-09-21T01:24:45.957Z,62.00
2018-09-21T01:27:15.315Z,61.80
2018-09-21T01:29:44.721Z,61.60
2018-09-21T01:32:14.548Z,61.30
2018-09-21T01:34:43.521Z,61.50
2018-09-21T01:37:12.397Z,61.50
2018-09-21T01:39:41.200Z,61.40
2018-09-21T01:42:09.791Z,61.40
2018-09-21T01:44:38.906Z,61.40
2018-09-21T01:47:09.758Z,61.30
2018-09-21T01:49:39.691Z,61.10
2018-09-21T01:52:08.343Z,61.10
2018-09-21T01:54:37.367Z,60.90
2018-09-21T01:57:06.556Z,61.00
2018-09-21T01:59:35.504Z,60.90
2018-09-21T02:02:06.390Z,60.80
2018-09-21T02:04:37.950Z,61.00
2018-09-21T02:07:08.034Z,61.00
2018-09-21T02:09:36.684Z,60.70
2018-09-21T02:12:05.314Z,60.80
2018-09-21T02:14:34.541Z,60.80
2018-09-21T02:17:03.565Z,60.90
2018-09-21T02:19:33.337Z,61.00
2018-09-21T02:22:02.749Z,60.90
2018-09-21T02:24:31.830Z,61.20
2018-09-21T02:27:06.475Z,61.50
2018-09-21T02:29:35.397Z,61.50
2018-09-21T02:32:03.903Z,61.50
2018-09-21T02:34:32.582Z,61.80
2018-09-21T02:37:01.395Z,61.60
2018-09-21T02:39:29.980Z,61.60
2018-09-21T02:42:04.442Z,61.40
2018-09-21T02:44:33.070Z,61.70
2018-09-21T02:47:01.748Z,61.70
2018-09-21T02:49:30.385Z,61.60
2018-09-21T02:51:59.411Z,61.70
2018-09-21T02:54:28.266Z,61.90
2018-09-21T02:56:57.146Z,61.90
2018-09-21T02:59:25.739Z,62.20
2018-09-21T03:01:54.355Z,61.90
2018-09-21T03:04:24.212Z,62.10
2018-09-21T03:06:54.090Z,62.30
2018-09-21T03:09:22.826Z,62.40
2018-09-21T03:11:51.649Z,62.50
2018-09-21T03:14:21.294Z,62.50
2018-09-21T03:16:50.597Z,62.50
2018-09-21T03:19:19.437Z,62.50
2018-09-21T03:21:49.431Z,62.50
2018-09-21T03:24:17.975Z,62.50
2018-09-21T03:26:47.050Z,63.30
2018-09-21T03:29:15.854Z,62.40
2018-09-21T03:31:45.979Z,62.70
2018-09-21T03:34:14.769Z,62.70
2018-09-21T03:36:43.525Z,62.40
2018-09-21T03:39:12.345Z,62.40
2018-09-21T03:41:41.182Z,62.40
2018-09-21T03:44:10.781Z,62.40
2018-09-21T03:46:40.787Z,62.50
2018-09-21T03:49:10.488Z,62.30
2018-09-21T03:51:40.394Z,62.40
2018-09-21T03:54:09.475Z,62.40
2018-09-21T03:56:38.701Z,62.40
2018-09-21T03:59:07.637Z,63.40
2018-09-21T04:01:38.424Z,63.70
2018-09-21T04:04:07.552Z,63.50
2018-09-21T04:06:37.233Z,63.30
2018-09-21T04:09:08.236Z,63.70
2018-09-21T04:11:37.917Z,63.70
2018-09-21T04:14:06.672Z,63.70
2018-09-21T04:16:35.228Z,63.70
2018-09-21T04:19:03.896Z,63.50
2018-09-21T04:21:34.376Z,63.70
2018-09-21T04:24:03.212Z,63.70
2018-09-21T04:26:31.849Z,63.70
2018-09-21T04:29:00.432Z,63.80
2018-09-21T04:31:29.439Z,63.50
2018-09-21T04:33:59.136Z,63.40
2018-09-21T04:36:27.861Z,63.50
2018-09-21T04:38:56.434Z,63.80
2018-09-21T04:41:26.324Z,63.90
2018-09-21T04:43:55.160Z,63.50
2018-09-21T04:46:24.051Z,64.50
2018-09-21T04:48:52.567Z,64.70
2018-09-21T04:51:21.266Z,65.60
2018-09-21T08:37:01.720Z,55.40
2018-09-21T08:39:30.165Z,56.90
2018-09-21T08:41:58.622Z,58.60
2018-09-21T08:44:27.392Z,59.50
2018-09-21T08:46:56.191Z,61.00
2018-09-21T08:49:24.931Z,60.00
2018-09-21T08:51:54.859Z,59.00
2018-09-21T08:54:23.876Z,56.70
2018-09-21T08:56:52.371Z,57.80
2018-09-21T08:59:21.058Z,58.80
2018-09-21T09:01:50.182Z,57.50
2018-09-21T09:04:19.808Z,57.30
2018-09-21T09:06:48.633Z,56.40
2018-09-21T09:09:17.241Z,56.30
2018-09-21T09:11:45.896Z,56.40
2018-09-21T09:14:14.398Z,55.70
2018-09-21T09:16:43.022Z,57.20
2018-09-21T09:19:11.625Z,56.20
2018-09-21T09:21:40.383Z,55.80
2018-09-21T09:24:09.267Z,56.50
2018-09-21T09:26:37.827Z,57.40
2018-09-21T09:29:06.323Z,58.90
2018-09-21T09:31:34.795Z,56.00
2018-09-21T09:34:03.173Z,56.70
2018-09-21T09:36:31.676Z,57.30
2018-09-21T09:39:00.576Z,57.90
2018-09-21T09:41:29.239Z,57.40
2018-09-21T09:43:57.673Z,55.50
2018-09-21T09:46:26.131Z,55.80
2018-09-21T09:48:54.917Z,55.80
2018-09-21T09:51:23.573Z,54.90
2018-09-21T09:53:51.918Z,57.00
2018-09-21T09:56:20.576Z,56.20
2018-09-21T09:58:49.266Z,54.40
2018-09-21T10:01:17.808Z,56.30
2018-09-21T10:03:46.281Z,54.30
2018-09-21T10:06:14.749Z,54.20
2018-09-21T10:08:43.213Z,55.30
2018-09-21T10:11:11.711Z,54.90
2018-09-21T10:13:40.378Z,55.90
2018-09-21T10:16:08.792Z,55.00
2018-09-21T10:18:37.317Z,55.30
2018-09-21T10:21:05.969Z,54.80
2018-09-21T10:23:34.454Z,54.60
2018-09-21T10:26:03.011Z,56.30
2018-09-21T10:28:31.632Z,56.60
2018-09-21T10:30:59.926Z,55.00
2018-09-21T10:33:28.492Z,52.40
2018-09-21T10:35:57.114Z,49.40
2018-09-21T10:38:25.556Z,48.40
2018-09-21T10:40:54.158Z,46.70
2018-09-21T10:43:22.809Z,46.70
2018-09-21T10:45:51.125Z,49.60
2018-09-21T10:48:19.845Z,47.80
2018-09-21T10:50:48.409Z,48.10
2018-09-21T10:53:16.979Z,46.10
2018-09-21T10:55:45.737Z,44.50
2018-09-21T10:58:14.279Z,47.30
2018-09-21T11:00:42.685Z,47.10
2018-09-21T11:03:11.295Z,47.40
2018-09-21T11:05:39.847Z,43.20
2018-09-21T11:08:08.379Z,46.40
2018-09-21T11:10:36.972Z,45.20
2018-09-21T11:13:05.635Z,48.20
2018-09-21T11:15:34.038Z,39.90
2018-09-21T11:18:02.516Z,38.30
2018-09-21T11:20:30.883Z,40.40
2018-09-21T11:22:59.547Z,37.20
2018-09-21T11:25:28.085Z,35.10
2018-09-21T11:27:56.633Z,33.60
2018-09-21T11:30:25.166Z,42.20
2018-09-21T11:32:53.872Z,40.60
2018-09-21T11:35:22.492Z,40.60
2018-09-21T11:37:51.297Z,41.20
2018-09-21T11:40:19.909Z,36.30
2018-09-21T11:42:48.420Z,35.00
2018-09-21T11:45:16.982Z,36.70
2018-09-21T11:47:45.670Z,40.00
2018-09-21T11:50:14.290Z,42.30
2018-09-21T11:52:43.537Z,35.90
2018-09-21T11:55:13.120Z,34.30
2018-09-21T11:57:43.370Z,33.40
2018-09-21T12:00:13.333Z,30.30
2018-09-21T12:02:43.078Z,33.20
2018-09-21T12:05:12.460Z,31.70
2018-09-21T12:07:41.062Z,32.70
2018-09-21T12:10:09.751Z,28.80
2018-09-21T12:12:38.632Z,30.00
2018-09-21T12:15:07.426Z,26.50
2018-09-21T12:17:35.801Z,26.60
2018-09-21T12:20:04.268Z,26.20
2018-09-21T12:22:33.346Z,26.50
2018-09-21T12:25:01.969Z,25.80
2018-09-21T12:27:30.912Z,28.60
2018-09-21T12:29:59.426Z,25.40
2018-09-21T12:34:55.015Z,27.00
2018-09-21T12:37:23.531Z,28.00
2018-09-21T12:39:52.013Z,25.80
2018-09-21T12:42:20.621Z,25.30
2018-09-21T12:44:49.325Z,26.10
2018-09-21T12:47:17.993Z,27.90
2018-09-21T12:52:15.016Z,25.00
2018-09-21T12:54:43.585Z,26.00
2018-09-21T12:57:12.433Z,29.00
2018-09-21T12:59:40.949Z,27.80
2018-09-21T13:02:09.581Z,27.10
2018-09-21T13:04:38.192Z,26.90
2018-09-21T13:07:06.823Z,26.40
2018-09-21T13:09:35.459Z,24.50
2018-09-21T13:12:04.013Z,22.30
2018-09-21T13:14:33.234Z,23.20
2018-09-21T13:17:01.597Z,23.70
2018-09-21T13:19:30.309Z,25.90
2018-09-21T13:21:58.817Z,26.00
2018-09-21T13:24:27.892Z,27.40
2018-09-21T13:26:56.777Z,28.50
2018-09-21T13:29:25.589Z,29.00
2018-09-21T13:31:54.412Z,28.30
2018-09-21T13:34:22.954Z,26.60
2018-09-21T13:36:51.857Z,26.40
2018-09-21T13:39:20.486Z,25.60
2018-09-21T13:44:18.896Z,21.30
2018-09-21T13:46:50.962Z,22.30
2018-09-21T13:49:20.184Z,22.80
2018-09-21T13:51:49.489Z,22.70
2018-09-21T13:54:23.623Z,23.30
2018-09-21T13:56:53.437Z,21.20
2018-09-21T13:59:24.099Z,21.60
2018-09-21T14:01:53.773Z,21.60
2018-09-21T14:04:22.685Z,21.10
2018-09-21T14:06:52.478Z,20.70
2018-09-21T14:09:21.390Z,21.80
2018-09-21T14:11:50.504Z,21.60
2018-09-21T14:14:19.465Z,22.10
2018-09-21T14:16:55.776Z,21.60
2018-09-21T14:19:24.670Z,22.30
2018-09-21T14:21:53.748Z,23.60
2018-09-21T14:24:22.222Z,23.30
2018-09-21T14:26:51.076Z,24.00
2018-09-21T14:29:19.698Z,24.80
2018-09-21T14:31:49.526Z,24.10
2018-09-21T14:34:18.392Z,22.40
2018-09-21T14:36:47.046Z,23.00
2018-09-21T14:39:15.757Z,25.00
2018-09-21T14:41:44.239Z,27.30
2018-09-21T14:44:12.708Z,28.40
2018-09-21T14:46:41.188Z,28.60
2018-09-21T14:49:09.941Z,29.20
2018-09-21T14:51:38.470Z,30.10
2018-09-21T14:54:06.938Z,31.80
2018-09-21T14:56:35.390Z,33.20
2018-09-21T14:59:04.036Z,35.60
2018-09-21T15:01:32.523Z,34.60
2018-09-21T15:04:01.182Z,34.70
2018-09-21T15:06:30.261Z,33.40
2018-09-21T15:08:58.780Z,29.10
2018-09-21T15:11:27.329Z,26.20
2018-09-21T15:13:56.071Z,24.70
2018-09-21T15:16:24.882Z,24.70
2018-09-21T15:18:53.624Z,25.70
2018-09-21T15:21:21.966Z,28.30
2018-09-21T15:23:50.967Z,29.70
2018-09-21T15:26:20.063Z,29.20
2018-09-21T15:28:49.007Z,28.50
2018-09-21T15:31:18.895Z,27.10
2018-09-21T15:33:47.367Z,27.50
2018-09-21T15:36:21.473Z,29.40
2018-09-21T15:38:50.651Z,31.30
2018-09-21T15:41:19.325Z,33.70
2018-09-21T15:43:48.270Z,35.70
2018-09-21T15:46:17.165Z,36.30
2018-09-21T15:48:45.850Z,36.70
2018-09-21T15:51:14.292Z,36.90
2018-09-21T15:53:42.841Z,38.00
2018-09-21T15:56:11.422Z,38.60
2018-09-21T15:58:39.958Z,39.00
2018-09-21T16:01:08.409Z,39.80
2018-09-21T16:03:36.885Z,41.40
2018-09-21T16:06:05.490Z,50.30
2018-09-21T16:08:35.112Z,55.40
2018-09-21T16:11:03.918Z,54.30
2018-09-21T16:13:32.482Z,56.50
2018-09-21T16:16:01.145Z,55.80
2018-09-21T16:18:29.737Z,57.00
2018-09-21T16:20:58.788Z,57.30
2018-09-21T16:23:27.252Z,57.30
2018-09-21T16:25:55.758Z,56.30
2018-09-21T16:28:24.367Z,57.10
2018-09-21T16:30:52.736Z,57.60
2018-09-21T16:33:21.743Z,58.50
2018-09-21T16:35:50.709Z,59.70
2018-09-21T16:38:19.272Z,61.00
2018-09-21T16:40:47.747Z,59.50
2018-09-21T16:43:16.196Z,58.70
2018-09-21T16:45:44.976Z,57.60
2018-09-21T16:48:14.748Z,57.50
2018-09-21T16:50:43.153Z,56.60
2018-09-21T16:53:11.830Z,57.10
2018-09-21T16:55:40.277Z,56.40
2018-09-21T16:58:09.722Z,56.40
2018-09-21T17:00:38.306Z,56.10
2018-09-21T17:03:06.852Z,55.00
2018-09-21T17:05:35.293Z,55.40
2018-09-21T17:08:03.728Z,54.50
2018-09-21T17:10:32.406Z,54.80
2018-09-21T17:13:02.589Z,55.10
2018-09-21T17:15:31.328Z,56.00
2018-09-21T17:17:59.710Z,55.20
2018-09-21T17:20:28.107Z,54.80
2018-09-21T17:26:39.526Z,55.30
2018-09-21T17:29:08.405Z,55.20
2018-09-21T17:31:37.018Z,55.40
2018-09-21T17:34:05.815Z,55.30
2018-09-21T17:36:34.450Z,55.20
2018-09-21T17:39:03.518Z,55.40
2018-09-21T17:41:32.211Z,54.80
2018-09-21T17:44:02.009Z,55.00
2018-09-21T17:46:30.877Z,55.10
2018-09-21T17:49:00.560Z,54.80
2018-09-21T17:51:29.790Z,54.70
2018-09-21T17:53:59.565Z,54.60
2018-09-21T17:56:28.323Z,54.60
2018-09-21T17:58:59.165Z,54.20
2018-09-21T18:01:29.794Z,54.40
2018-09-21T18:03:58.603Z,55.50
2018-09-21T18:06:27.345Z,67.80
2018-09-21T18:08:56.187Z,69.60
2018-09-21T18:11:24.835Z,69.60
2018-09-21T18:13:53.757Z,69.10
2018-09-21T18:16:23.887Z,69.20
2018-09-21T18:18:52.633Z,70.00
2018-09-21T18:21:21.308Z,70.20
2018-09-21T18:23:50.155Z,70.70
2018-09-21T18:26:19.418Z,71.60
2018-09-21T18:28:49.512Z,72.60
2018-09-21T18:31:18.333Z,71.80
2018-09-21T18:33:47.163Z,74.60
2018-09-21T18:36:16.037Z,73.90
2018-09-21T18:38:44.944Z,73.30
2018-09-21T18:41:14.311Z,73.40
2018-09-21T18:43:43.222Z,74.00
2018-09-21T18:46:12.024Z,75.20
2018-09-21T18:48:40.797Z,77.20
2018-09-21T18:51:09.628Z,77.40
2018-09-21T18:53:39.526Z,76.80
2018-09-21T18:56:08.424Z,77.60
2018-09-21T18:58:37.033Z,76.70
2018-09-21T19:01:05.900Z,76.10
2018-09-21T19:03:35.164Z,76.20
2018-09-21T19:06:03.726Z,76.40
2018-09-21T19:08:36.281Z,76.50
2018-09-21T19:11:05.144Z,75.80
2018-09-21T19:13:34.057Z,76.40
2018-09-21T19:16:03.224Z,77.00
2018-09-21T19:18:32.761Z,77.00
2018-09-21T19:21:02.020Z,75.40
2018-09-21T19:23:34.397Z,74.50
2018-09-21T19:26:04.989Z,73.80
2018-09-21T19:28:35.595Z,73.90
2018-09-21T19:31:05.557Z,74.90
2018-09-21T19:33:35.216Z,74.10
2018-09-21T19:36:04.896Z,73.60
2018-09-21T19:38:34.370Z,72.50
2018-09-21T19:41:03.960Z,73.00
2018-09-21T19:43:33.247Z,75.60
2018-09-21T19:46:03.423Z,77.90
2018-09-21T19:48:32.521Z,77.20
2018-09-21T19:51:03.418Z,78.20
2018-09-21T19:56:05.832Z,81.80
2018-09-21T19:58:36.063Z,81.50
2018-09-21T20:01:05.367Z,77.90
2018-09-21T20:03:38.656Z,76.90
2018-09-21T20:06:28.993Z,78.80
2018-09-21T20:08:58.642Z,78.80
2018-09-21T20:11:27.988Z,78.60
2018-09-21T20:14:00.033Z,77.20
2018-09-21T20:16:30.428Z,77.90
2018-09-21T20:18:59.532Z,74.60
2018-09-21T20:21:28.793Z,73.60
2018-09-21T20:23:57.761Z,74.10
2018-09-21T20:26:26.957Z,75.20
2018-09-21T20:28:57.570Z,77.60
2018-09-21T20:31:31.791Z,79.00
2018-09-21T20:34:01.481Z,78.40
2018-09-21T20:36:31.271Z,76.40
2018-09-21T20:39:05.070Z,75.00
2018-09-21T20:41:34.566Z,76.20
2018-09-21T20:44:03.919Z,74.70
2018-09-21T20:46:33.181Z,73.60
2018-09-21T20:49:02.614Z,73.90
2018-09-21T20:51:31.334Z,76.10
2018-09-21T20:54:01.342Z,74.10
2018-09-21T20:56:31.077Z,73.20
2018-09-21T20:59:01.634Z,73.50
2018-09-21T21:01:30.500Z,75.80
2018-09-21T21:03:59.918Z,73.50
2018-09-21T21:06:29.193Z,72.00
2018-09-21T21:08:58.348Z,71.20
2018-09-21T21:11:29.609Z,72.60
2018-09-21T21:13:58.629Z,71.60
2018-09-21T21:16:27.876Z,71.80
2018-09-21T21:18:57.220Z,71.90
2018-09-21T21:21:26.359Z,71.50
2018-09-21T21:23:56.518Z,72.00
2018-09-21T21:26:25.752Z,72.40
2018-09-21T21:28:55.944Z,71.80
2018-09-21T21:31:25.704Z,72.80
2018-09-21T21:33:55.297Z,72.40
2018-09-21T21:36:25.036Z,71.90
2018-09-21T21:38:53.812Z,69.50
2018-09-21T21:41:22.682Z,68.40
2018-09-21T21:43:52.180Z,72.00
2018-09-21T21:46:21.207Z,71.30
2018-09-21T21:48:50.956Z,69.40
2018-09-21T21:51:20.891Z,69.40
2018-09-21T21:53:50.299Z,68.90
2018-09-21T21:56:19.679Z,70.00
2018-09-21T21:58:48.571Z,72.90
2018-09-21T22:01:22.849Z,70.40
2018-09-21T22:03:52.552Z,69.90
2018-09-21T22:06:21.996Z,67.50
2018-09-21T22:08:51.325Z,70.00
2018-09-21T22:11:25.549Z,68.40
2018-09-21T22:13:59.887Z,67.10
2018-09-21T22:16:28.869Z,65.80
2018-09-21T22:18:57.791Z,66.80
2018-09-21T22:21:27.183Z,66.40
2018-09-21T22:23:56.295Z,65.50
2018-09-21T22:26:29.553Z,66.40
2018-09-21T22:28:59.303Z,65.80
2018-09-21T22:31:29.137Z,64.60
2018-09-21T22:33:58.235Z,65.20
2018-09-21T22:36:28.427Z,65.90
2018-09-21T22:38:57.426Z,67.60
2018-09-21T22:41:28.394Z,66.70
2018-09-21T22:43:57.395Z,66.60
2018-09-21T22:46:27.098Z,67.00
2018-09-21T22:48:56.943Z,65.60
2018-09-21T22:51:26.080Z,68.20
2018-09-21T22:54:02.006Z,65.10
2018-09-21T22:56:30.919Z,66.80
2018-09-21T22:58:59.881Z,66.40
2018-09-21T23:01:28.860Z,68.80
2018-09-21T23:03:57.869Z,66.60
2018-09-21T23:06:27.300Z,67.60
2018-09-21T23:08:56.317Z,66.60
2018-09-21T23:11:25.668Z,67.20
2018-09-21T23:13:54.345Z,66.70
2018-09-21T23:16:23.449Z,67.10
2018-09-21T23:18:52.539Z,65.00
2018-09-21T23:21:21.985Z,66.10
2018-09-21T23:23:51.292Z,66.70
2018-09-21T23:26:20.517Z,66.80
2018-09-21T23:28:51.615Z,67.10
2018-09-21T23:31:20.566Z,65.90
2018-09-21T23:33:49.550Z,64.90
2018-09-21T23:36:18.896Z,66.20
2018-09-21T23:38:49.101Z,66.70
2018-09-21T23:41:18.130Z,66.40
2018-09-21T23:43:47.317Z,65.50
2018-09-21T23:46:16.673Z,64.60
2018-09-21T23:51:26.084Z,64.70
2018-09-21T23:53:54.833Z,64.50
2018-09-21T23:56:23.833Z,65.90
2018-09-21T23:58:52.515Z,64.40
